Pilot No. 4 — WDA5463 — position and weather

sailwx.info

Track history (hours):
 
Tides and Currents Weather Stations Pressure Air Temp Water Temp Dewpoint Dewpoint Depression Visibility Wind Speed Wind Dir Waves Ship Positions

Pilot No. 4

More information available from US FCC via Universal Licensing System and Coast Guard Vessel Documentation Center.

Last reported at 2014-Sep-23 09:33 UTC. Time now 2014-Sep-23 10:23 UTC.
Position N 26°06' W 080°03'.

MMSI: 495270931.

Date/timePositionNaut miles runAvg speedWind from/ knotsBaromVisibWave heightAir tempDewpointWater temp
2014-Sep-23 09:33N 26°06' W 080°03'4 4.0
2014-Sep-23 08:33N 26°04' W 080°07'2 2.3
2014-Sep-23 07:33N 26°05' W 080°05'2 1.0
2014-Sep-23 05:33N 26°05' W 080°07'2 1.6
2014-Sep-23 04:33N 26°06' W 080°05'1 0.6
2014-Sep-23 02:33N 26°05' W 080°04'2 1.2
2014-Sep-23 00:34N 26°05' W 080°07'0 0.5
2014-Sep-22 23:33N 26°06' W 080°07'0 0.4
2014-Sep-22 22:33N 26°06' W 080°07'2 1.6
2014-Sep-22 21:33N 26°06' W 080°05'1 0.5
2014-Sep-22 19:19N 26°06' W 080°07'0 0.1
2014-Sep-22 18:34N 26°06' W 080°07'1 1.4
2014-Sep-22 17:34N 26°05' W 080°05'2 0.5
2014-Sep-22 13:24N 26°06' W 080°07'1 1.2
2014-Sep-22 12:33N 26°05' W 080°07'0 0.3
2014-Sep-22 11:33N 26°05' W 080°07'0 0.3
2014-Sep-22 10:34N 26°05' W 080°07'0 0.2
2014-Sep-22 09:34N 26°05' W 080°07'0 0.2
2014-Sep-22 08:34N 26°06' W 080°07'0 0.3
2014-Sep-22 07:33N 26°05' W 080°07'1 0.9
2014-Sep-22 06:33N 26°06' W 080°07'0 0.0
2014-Sep-22 05:33N 26°06' W 080°07'1 0.8
2014-Sep-22 04:33N 26°05' W 080°07'1 0.2
2014-Sep-22 00:23N 26°06' W 080°07'1 1.1
2014-Sep-21 23:34N 26°05' W 080°07'0 0.1
2014-Sep-21 22:34N 26°05' W 080°07'1 1.3
2014-Sep-21 21:33N 26°06' W 080°06'1 1.4
2014-Sep-21 20:33N 26°06' W 080°07'1 0.1
2014-Sep-21 11:33N 26°06' W 080°06'1 0.8
2014-Sep-21 10:07N 26°06' W 080°07'4 7.3
2014-Sep-21 09:34N 26°05' W 080°03'2 2.0
2014-Sep-21 08:33N 26°06' W 080°05'0 0.2
2014-Sep-21 07:33N 26°06' W 080°05'2 1.7
2014-Sep-21 06:30N 26°06' W 080°07'0 0.0
2014-Sep-21 05:33N 26°06' W 080°07'0 0.0
2014-Sep-21 04:33N 26°06' W 080°07'1 0.6
2014-Sep-21 03:33N 26°06' W 080°07'0 0.0
2014-Sep-20 19:34N 26°06' W 080°07'1 0.1
2014-Sep-20 13:11N 26°06' W 080°07'0 0.0
2014-Sep-20 12:33N 26°06' W 080°07'1 0.6
2014-Sep-20 11:33N 26°06' W 080°07'3 3.3
2014-Sep-20 10:33N 26°06' W 080°03'1 0.8
2014-Sep-20 09:33N 26°06' W 080°04'1 1.1
2014-Sep-20 08:34N 26°06' W 080°05'1 1.4
2014-Sep-20 07:33N 26°06' W 080°07'0 0.2
2014-Sep-20 06:33N 26°05' W 080°07'0 0.3
2014-Sep-20 05:33N 26°06' W 080°07'0 0.3
2014-Sep-20 04:33N 26°06' W 080°06'0 0.3
2014-Sep-20 03:33N 26°05' W 080°07'1 0.0
2014-Sep-19 12:33N 26°06' W 080°07'0 0.0
2014-Sep-18 20:33N 26°06' W 080°07'0 0.0
2014-Sep-18 15:07N 26°06' W 080°07'2 4.4
2014-Sep-18 14:33N 26°06' W 080°05'  
Track history (hours):
 
Tides and Currents Weather Stations Pressure Air Temp Water Temp Dewpoint Dewpoint Depression Visibility Wind Speed Wind Dir Waves Ship Positions

Pilot No. 4

More information available from US FCC via Universal Licensing System and Coast Guard Vessel Documentation Center.

Last reported at 2014-Sep-23 09:33 UTC. Time now 2014-Sep-23 10:23 UTC.
Position N 26°06' W 080°03'.

MMSI: 495270931.

Date/timePositionNaut miles runAvg speedWind from/ knotsBaromVisibWave heightAir tempDewpointWater temp
2014-Sep-23 09:33N 26°06' W 080°03'4 4.0
2014-Sep-23 08:33N 26°04' W 080°07'2 2.3
2014-Sep-23 07:33N 26°05' W 080°05'2 1.0
2014-Sep-23 05:33N 26°05' W 080°07'2 1.6
2014-Sep-23 04:33N 26°06' W 080°05'1 0.6
2014-Sep-23 02:33N 26°05' W 080°04'2 1.2
2014-Sep-23 00:34N 26°05' W 080°07'0 0.5
2014-Sep-22 23:33N 26°06' W 080°07'0 0.4
2014-Sep-22 22:33N 26°06' W 080°07'2 1.6
2014-Sep-22 21:33N 26°06' W 080°05'1 0.5
2014-Sep-22 19:19N 26°06' W 080°07'0 0.1
2014-Sep-22 18:34N 26°06' W 080°07'1 1.4
2014-Sep-22 17:34N 26°05' W 080°05'2 0.5
2014-Sep-22 13:24N 26°06' W 080°07'1 1.2
2014-Sep-22 12:33N 26°05' W 080°07'0 0.3
2014-Sep-22 11:33N 26°05' W 080°07'0 0.3
2014-Sep-22 10:34N 26°05' W 080°07'0 0.2
2014-Sep-22 09:34N 26°05' W 080°07'0 0.2
2014-Sep-22 08:34N 26°06' W 080°07'0 0.3
2014-Sep-22 07:33N 26°05' W 080°07'1 0.9
2014-Sep-22 06:33N 26°06' W 080°07'0 0.0
2014-Sep-22 05:33N 26°06' W 080°07'1 0.8
2014-Sep-22 04:33N 26°05' W 080°07'1 0.2
2014-Sep-22 00:23N 26°06' W 080°07'1 1.1
2014-Sep-21 23:34N 26°05' W 080°07'0 0.1
2014-Sep-21 22:34N 26°05' W 080°07'1 1.3
2014-Sep-21 21:33N 26°06' W 080°06'1 1.4
2014-Sep-21 20:33N 26°06' W 080°07'1 0.1
2014-Sep-21 11:33N 26°06' W 080°06'1 0.8
2014-Sep-21 10:07N 26°06' W 080°07'4 7.3
2014-Sep-21 09:34N 26°05' W 080°03'2 2.0
2014-Sep-21 08:33N 26°06' W 080°05'0 0.2
2014-Sep-21 07:33N 26°06' W 080°05'2 1.7
2014-Sep-21 06:30N 26°06' W 080°07'0 0.0
2014-Sep-21 05:33N 26°06' W 080°07'0 0.0
2014-Sep-21 04:33N 26°06' W 080°07'1 0.6
2014-Sep-21 03:33N 26°06' W 080°07'0 0.0
2014-Sep-20 19:34N 26°06' W 080°07'1 0.1
2014-Sep-20 13:11N 26°06' W 080°07'0 0.0
2014-Sep-20 12:33N 26°06' W 080°07'1 0.6
2014-Sep-20 11:33N 26°06' W 080°07'3 3.3
2014-Sep-20 10:33N 26°06' W 080°03'1 0.8
2014-Sep-20 09:33N 26°06' W 080°04'1 1.1
2014-Sep-20 08:34N 26°06' W 080°05'1 1.4
2014-Sep-20 07:33N 26°06' W 080°07'0 0.2
2014-Sep-20 06:33N 26°05' W 080°07'0 0.3
2014-Sep-20 05:33N 26°06' W 080°07'0 0.3
2014-Sep-20 04:33N 26°06' W 080°06'0 0.3
2014-Sep-20 03:33N 26°05' W 080°07'1 0.0
2014-Sep-19 12:33N 26°06' W 080°07'0 0.0
2014-Sep-18 20:33N 26°06' W 080°07'0 0.0
2014-Sep-18 15:07N 26°06' W 080°07'2 4.4
2014-Sep-18 14:33N 26°06' W 080°05'  

Dump ship's entire track history